Terminal Aerodrome Forecast
Issued by NWS Upton, NY

Home | Current Version | Previous Version | Text Only | Print | Product List | Glossary On
Versions: 1 2 3 4 5 6 7 8 9 10 11 12 13 14 15 16 17 18 19 20 21 22 23 24 25 26 27 28
000
FTUS41 KOKX 220833 AAA
TAFBDR
TAF AMD
KBDR 220833Z 2209/2306 26005KT P6SM BKN060
     FM221200 30009KT P6SM SCT060
     FM221400 30012G21KT P6SM SCT060
     FM221800 27015G25KT P6SM BKN060
     FM222200 32016G25KT P6SM BKN060
     FM230200 32013G20KT P6SM SCT060=

USA.gov is the U.S. government's official web portal to all federal, state and local government web resources and services.